Temporibus — INIJ2 — position and weather

sailwx.info

Track history (hours):
 
Tides and Currents Weather Stations Pressure Air Temp Water Temp Dewpoint Dewpoint Depression Visibility Wind Speed Wind Dir Waves Ship Positions

Temporibus

Last reported at 2017-Dec-16 11:56 UTC. Time now 2017-Dec-17 02:42 UTC.
Position N 37°02' E 014°15'.

Length 16 m; draft 2.5 m.

Type: Pollution control. MMSI: 247363600.

Date/timePositionNaut miles runAvg speedWind from/ knotsBaromVisibWave heightAir tempDewpointWater temp
2017-Dec-16 11:56N 37°02' E 014°15'0 0.0
2017-Dec-16 11:30N 37°02' E 014°15'0 0.0
2017-Dec-16 11:00N 37°02' E 014°15'1 1.8
2017-Dec-16 10:30N 37°02' E 014°16'2 4.0
2017-Dec-16 10:00N 37°00' E 014°15'2 4.0
2017-Dec-16 09:30N 36°58' E 014°14'0 0.7
2017-Dec-16 09:00N 36°58' E 014°14'2 4.8
2017-Dec-16 08:30N 37°00' E 014°15'2 0.0
2017-Dec-14 15:00N 37°02' E 014°15'1 2.1
2017-Dec-14 14:30N 37°02' E 014°16'1 2.2
2017-Dec-14 14:00N 37°01' E 014°16'2 4.0
2017-Dec-14 13:30N 36°59' E 014°14'2 4.6
2017-Dec-14 13:00N 36°57' E 014°13'2 4.7
2017-Dec-14 12:30N 36°58' E 014°10'2 4.4
2017-Dec-14 12:00N 36°59' E 014°08'2 4.4
2017-Dec-14 11:30N 36°60' E 014°05'2 4.4
2017-Dec-14 11:00N 37°01' E 014°03'2 4.4
2017-Dec-14 10:30N 36°60' E 014°05'2 4.7
2017-Dec-14 10:00N 36°59' E 014°08'2 4.6
2017-Dec-14 09:30N 36°58' E 014°11'2 4.2
2017-Dec-14 09:00N 36°57' E 014°13'2 4.9
2017-Dec-14 08:30N 36°60' E 014°15'3 5.0
2017-Dec-14 08:00N 37°02' E 014°16'1 1.7
2017-Dec-14 07:30N 37°02' E 014°15'0 0.0
2017-Dec-14 07:00N 37°02' E 014°15'0 0.0
2017-Dec-12 15:08N 37°02' E 014°15'0 0.0
2017-Dec-12 14:59N 37°02' E 014°15'0 0.0
2017-Dec-12 14:29N 37°02' E 014°15'0 0.0
2017-Dec-12 13:59N 37°02' E 014°15'0 0.0
2017-Dec-12 13:29N 37°02' E 014°15'0 0.0
2017-Dec-12 12:59N 37°02' E 014°15'0 0.0
2017-Dec-12 12:29N 37°02' E 014°15'0 0.0
2017-Dec-12 11:59N 37°02' E 014°15'0 0.0
2017-Dec-12 11:29N 37°02' E 014°15'0 0.0
2017-Dec-12 10:59N 37°02' E 014°15'0 0.0
2017-Dec-12 10:29N 37°02' E 014°15'0 0.0
2017-Dec-12 09:59N 37°02' E 014°15'0 0.0
2017-Dec-12 09:29N 37°02' E 014°15'0 0.0
2017-Dec-12 08:59N 37°02' E 014°15'0 0.0
2017-Dec-12 08:29N 37°02' E 014°15'0 0.0
2017-Dec-12 07:59N 37°02' E 014°15'0 0.0
2017-Dec-12 07:29N 37°02' E 014°15'0 0.0
2017-Dec-12 06:59N 37°02' E 014°15'  
2017-Dec-09 15:16N 37°02' E 014°15'0 0.0
2017-Dec-09 14:58N 37°02' E 014°15'0 0.0
2017-Dec-09 14:28N 37°02' E 014°15'0 0.0
2017-Dec-09 13:58N 37°02' E 014°15'0 0.0
2017-Dec-09 13:28N 37°02' E 014°15'0 0.0
2017-Dec-09 12:58N 37°02' E 014°15'0 0.0
2017-Dec-09 12:28N 37°02' E 014°15'0 0.0
2017-Dec-09 11:58N 37°02' E 014°15'0 0.0
2017-Dec-09 11:28N 37°02' E 014°15'0 0.0
2017-Dec-09 10:59N 37°02' E 014°15'0 0.0
2017-Dec-09 10:30N 37°02' E 014°15'0 0.0
2017-Dec-09 10:00N 37°02' E 014°15'0 0.0
2017-Dec-09 09:30N 37°02' E 014°15'0 0.0
2017-Dec-09 09:00N 37°02' E 014°15'0 0.0
2017-Dec-09 08:30N 37°02' E 014°15'1 1.8
2017-Dec-09 08:00N 37°02' E 014°16'1 1.4
2017-Dec-09 07:30N 37°02' E 014°15'0 0.4
2017-Dec-09 07:00N 37°02' E 014°15'0 0.0
2017-Dec-08 15:06N 37°02' E 014°15'0 0.0
2017-Dec-08 15:00N 37°02' E 014°15'0 0.8
2017-Dec-08 14:30N 37°02' E 014°15'1 1.1
2017-Dec-08 14:00N 37°01' E 014°16'2 4.3
2017-Dec-08 13:30N 36°60' E 014°15'2 4.4
2017-Dec-08 13:00N 36°58' E 014°13'2 3.6
2017-Dec-08 12:31N 36°58' E 014°11'2 4.4
2017-Dec-08 12:00N 36°59' E 014°09'2 4.8
2017-Dec-08 11:30N 36°60' E 014°06'2 4.9
2017-Dec-08 11:00N 37°00' E 014°03'2 3.3
2017-Dec-08 10:30N 36°60' E 014°05'2 4.0
2017-Dec-08 10:01N 36°59' E 014°07'3 5.0
2017-Dec-08 09:30N 36°58' E 014°10'2 5.0
2017-Dec-08 09:00N 36°57' E 014°13'3 5.1
2017-Dec-08 08:30N 36°60' E 014°15'3 5.1
2017-Dec-08 08:01N 37°02' E 014°16'1 1.5
2017-Dec-08 07:30N 37°02' E 014°15'0 0.1
2017-Dec-08 07:00N 37°02' E 014°15'0 0.0
2017-Dec-07 15:27N 37°02' E 014°15'0 0.0
2017-Dec-07 15:00N 37°02' E 014°15'1 1.6
2017-Dec-07 14:30N 37°02' E 014°16'1 1.5
2017-Dec-07 14:00N 37°01' E 014°16'2 4.3
2017-Dec-07 13:30N 36°59' E 014°14'2 4.2
2017-Dec-07 13:00N 36°57' E 014°13'2 4.1
2017-Dec-07 12:31N 36°58' E 014°11'2 4.7
2017-Dec-07 12:00N 36°59' E 014°08'2 5.0
2017-Dec-07 11:31N 36°60' E 014°05'2 3.5
2017-Dec-07 11:00N 37°00' E 014°03'2 4.3
2017-Dec-07 10:30N 36°60' E 014°06'2 4.4
2017-Dec-07 10:00N 36°59' E 014°08'2 4.7
2017-Dec-07 09:31N 36°58' E 014°11'2 3.8
2017-Dec-07 09:00N 36°58' E 014°13'3 5.2
2017-Dec-07 08:31N 36°60' E 014°15'3 5.2
2017-Dec-07 08:00N 37°02' E 014°16'1 2.0
2017-Dec-07 07:30N 37°02' E 014°15'0 0.1
2017-Dec-07 07:00N 37°02' E 014°15'  
Track history (hours):
 
Tides and Currents Weather Stations Pressure Air Temp Water Temp Dewpoint Dewpoint Depression Visibility Wind Speed Wind Dir Waves Ship Positions

Temporibus

Last reported at 2017-Dec-16 11:56 UTC. Time now 2017-Dec-17 02:42 UTC.
Position N 37°02' E 014°15'.

Length 16 m; draft 2.5 m.

Type: Pollution control. MMSI: 247363600.

Date/timePositionNaut miles runAvg speedWind from/ knotsBaromVisibWave heightAir tempDewpointWater temp
2017-Dec-16 11:56N 37°02' E 014°15'0 0.0
2017-Dec-16 11:30N 37°02' E 014°15'0 0.0
2017-Dec-16 11:00N 37°02' E 014°15'1 1.8
2017-Dec-16 10:30N 37°02' E 014°16'2 4.0
2017-Dec-16 10:00N 37°00' E 014°15'2 4.0
2017-Dec-16 09:30N 36°58' E 014°14'0 0.7
2017-Dec-16 09:00N 36°58' E 014°14'2 4.8
2017-Dec-16 08:30N 37°00' E 014°15'2 0.0
2017-Dec-14 15:00N 37°02' E 014°15'1 2.1
2017-Dec-14 14:30N 37°02' E 014°16'1 2.2
2017-Dec-14 14:00N 37°01' E 014°16'2 4.0
2017-Dec-14 13:30N 36°59' E 014°14'2 4.6
2017-Dec-14 13:00N 36°57' E 014°13'2 4.7
2017-Dec-14 12:30N 36°58' E 014°10'2 4.4
2017-Dec-14 12:00N 36°59' E 014°08'2 4.4
2017-Dec-14 11:30N 36°60' E 014°05'2 4.4
2017-Dec-14 11:00N 37°01' E 014°03'2 4.4
2017-Dec-14 10:30N 36°60' E 014°05'2 4.7
2017-Dec-14 10:00N 36°59' E 014°08'2 4.6
2017-Dec-14 09:30N 36°58' E 014°11'2 4.2
2017-Dec-14 09:00N 36°57' E 014°13'2 4.9
2017-Dec-14 08:30N 36°60' E 014°15'3 5.0
2017-Dec-14 08:00N 37°02' E 014°16'1 1.7
2017-Dec-14 07:30N 37°02' E 014°15'0 0.0
2017-Dec-14 07:00N 37°02' E 014°15'0 0.0
2017-Dec-12 15:08N 37°02' E 014°15'0 0.0
2017-Dec-12 14:59N 37°02' E 014°15'0 0.0
2017-Dec-12 14:29N 37°02' E 014°15'0 0.0
2017-Dec-12 13:59N 37°02' E 014°15'0 0.0
2017-Dec-12 13:29N 37°02' E 014°15'0 0.0
2017-Dec-12 12:59N 37°02' E 014°15'0 0.0
2017-Dec-12 12:29N 37°02' E 014°15'0 0.0
2017-Dec-12 11:59N 37°02' E 014°15'0 0.0
2017-Dec-12 11:29N 37°02' E 014°15'0 0.0
2017-Dec-12 10:59N 37°02' E 014°15'0 0.0
2017-Dec-12 10:29N 37°02' E 014°15'0 0.0
2017-Dec-12 09:59N 37°02' E 014°15'0 0.0
2017-Dec-12 09:29N 37°02' E 014°15'0 0.0
2017-Dec-12 08:59N 37°02' E 014°15'0 0.0
2017-Dec-12 08:29N 37°02' E 014°15'0 0.0
2017-Dec-12 07:59N 37°02' E 014°15'0 0.0
2017-Dec-12 07:29N 37°02' E 014°15'0 0.0
2017-Dec-12 06:59N 37°02' E 014°15'  
2017-Dec-09 15:16N 37°02' E 014°15'0 0.0
2017-Dec-09 14:58N 37°02' E 014°15'0 0.0
2017-Dec-09 14:28N 37°02' E 014°15'0 0.0
2017-Dec-09 13:58N 37°02' E 014°15'0 0.0
2017-Dec-09 13:28N 37°02' E 014°15'0 0.0
2017-Dec-09 12:58N 37°02' E 014°15'0 0.0
2017-Dec-09 12:28N 37°02' E 014°15'0 0.0
2017-Dec-09 11:58N 37°02' E 014°15'0 0.0
2017-Dec-09 11:28N 37°02' E 014°15'0 0.0
2017-Dec-09 10:59N 37°02' E 014°15'0 0.0
2017-Dec-09 10:30N 37°02' E 014°15'0 0.0
2017-Dec-09 10:00N 37°02' E 014°15'0 0.0
2017-Dec-09 09:30N 37°02' E 014°15'0 0.0
2017-Dec-09 09:00N 37°02' E 014°15'0 0.0
2017-Dec-09 08:30N 37°02' E 014°15'1 1.8
2017-Dec-09 08:00N 37°02' E 014°16'1 1.4
2017-Dec-09 07:30N 37°02' E 014°15'0 0.4
2017-Dec-09 07:00N 37°02' E 014°15'0 0.0
2017-Dec-08 15:06N 37°02' E 014°15'0 0.0
2017-Dec-08 15:00N 37°02' E 014°15'0 0.8
2017-Dec-08 14:30N 37°02' E 014°15'1 1.1
2017-Dec-08 14:00N 37°01' E 014°16'2 4.3
2017-Dec-08 13:30N 36°60' E 014°15'2 4.4
2017-Dec-08 13:00N 36°58' E 014°13'2 3.6
2017-Dec-08 12:31N 36°58' E 014°11'2 4.4
2017-Dec-08 12:00N 36°59' E 014°09'2 4.8
2017-Dec-08 11:30N 36°60' E 014°06'2 4.9
2017-Dec-08 11:00N 37°00' E 014°03'2 3.3
2017-Dec-08 10:30N 36°60' E 014°05'2 4.0
2017-Dec-08 10:01N 36°59' E 014°07'3 5.0
2017-Dec-08 09:30N 36°58' E 014°10'2 5.0
2017-Dec-08 09:00N 36°57' E 014°13'3 5.1
2017-Dec-08 08:30N 36°60' E 014°15'3 5.1
2017-Dec-08 08:01N 37°02' E 014°16'1 1.5
2017-Dec-08 07:30N 37°02' E 014°15'0 0.1
2017-Dec-08 07:00N 37°02' E 014°15'0 0.0
2017-Dec-07 15:27N 37°02' E 014°15'0 0.0
2017-Dec-07 15:00N 37°02' E 014°15'1 1.6
2017-Dec-07 14:30N 37°02' E 014°16'1 1.5
2017-Dec-07 14:00N 37°01' E 014°16'2 4.3
2017-Dec-07 13:30N 36°59' E 014°14'2 4.2
2017-Dec-07 13:00N 36°57' E 014°13'2 4.1
2017-Dec-07 12:31N 36°58' E 014°11'2 4.7
2017-Dec-07 12:00N 36°59' E 014°08'2 5.0
2017-Dec-07 11:31N 36°60' E 014°05'2 3.5
2017-Dec-07 11:00N 37°00' E 014°03'2 4.3
2017-Dec-07 10:30N 36°60' E 014°06'2 4.4
2017-Dec-07 10:00N 36°59' E 014°08'2 4.7
2017-Dec-07 09:31N 36°58' E 014°11'2 3.8
2017-Dec-07 09:00N 36°58' E 014°13'3 5.2
2017-Dec-07 08:31N 36°60' E 014°15'3 5.2
2017-Dec-07 08:00N 37°02' E 014°16'1 2.0
2017-Dec-07 07:30N 37°02' E 014°15'0 0.1
2017-Dec-07 07:00N 37°02' E 014°15'  

Dump ship's entire track history